sensor_id;sensor_type;location;lat;lon;timestamp;P1;durP1;ratioP1;P2;durP2;ratioP2
21181;SDS011;10749;46.296;7.524;2022-12-20T00:01:57;4.40;;;2.50;;
21181;SDS011;10749;46.296;7.524;2022-12-20T00:04:22;4.77;;;2.63;;
21181;SDS011;10749;46.296;7.524;2022-12-20T00:06:48;6.43;;;3.00;;
21181;SDS011;10749;46.296;7.524;2022-12-20T00:09:13;4.30;;;2.67;;
21181;SDS011;10749;46.296;7.524;2022-12-20T00:11:39;5.83;;;3.60;;
21181;SDS011;10749;46.296;7.524;2022-12-20T00:14:06;10.33;;;3.97;;
21181;SDS011;10749;46.296;7.524;2022-12-20T00:16:32;5.77;;;3.57;;
21181;SDS011;10749;46.296;7.524;2022-12-20T00:19:00;4.67;;;3.00;;
21181;SDS011;10749;46.296;7.524;2022-12-20T00:21:27;6.30;;;4.00;;
21181;SDS011;10749;46.296;7.524;2022-12-20T00:23:54;6.03;;;3.60;;
21181;SDS011;10749;46.296;7.524;2022-12-20T00:26:21;4.30;;;2.90;;
21181;SDS011;10749;46.296;7.524;2022-12-20T00:28:48;6.20;;;3.40;;
21181;SDS011;10749;46.296;7.524;2022-12-20T00:31:15;5.30;;;3.27;;
21181;SDS011;10749;46.296;7.524;2022-12-20T00:33:44;6.00;;;3.93;;
21181;SDS011;10749;46.296;7.524;2022-12-20T00:36:12;6.33;;;3.83;;
21181;SDS011;10749;46.296;7.524;2022-12-20T00:38:37;7.27;;;4.10;;
21181;SDS011;10749;46.296;7.524;2022-12-20T00:41:04;5.53;;;3.60;;
21181;SDS011;10749;46.296;7.524;2022-12-20T00:43:31;5.53;;;3.60;;
21181;SDS011;10749;46.296;7.524;2022-12-20T00:45:57;8.23;;;4.13;;
21181;SDS011;10749;46.296;7.524;2022-12-20T00:48:24;9.47;;;4.20;;
21181;SDS011;10749;46.296;7.524;2022-12-20T00:50:50;6.90;;;3.83;;
21181;SDS011;10749;46.296;7.524;2022-12-20T00:53:15;8.20;;;3.93;;
21181;SDS011;10749;46.296;7.524;2022-12-20T00:55:44;7.50;;;4.53;;
21181;SDS011;10749;46.296;7.524;2022-12-20T00:58:10;6.67;;;4.13;;
21181;SDS011;10749;46.296;7.524;2022-12-20T01:00:36;7.07;;;4.00;;
21181;SDS011;10749;46.296;7.524;2022-12-20T01:03:02;6.77;;;4.00;;
21181;SDS011;10749;46.296;7.524;2022-12-20T01:05:27;7.47;;;4.00;;
21181;SDS011;10749;46.296;7.524;2022-12-20T01:07:53;4.23;;;3.03;;
21181;SDS011;10749;46.296;7.524;2022-12-20T01:10:18;5.47;;;3.80;;
21181;SDS011;10749;46.296;7.524;2022-12-20T01:12:43;6.07;;;3.23;;
21181;SDS011;10749;46.296;7.524;2022-12-20T01:15:09;6.43;;;2.93;;
21181;SDS011;10749;46.296;7.524;2022-12-20T01:17:35;5.10;;;3.00;;
21181;SDS011;10749;46.296;7.524;2022-12-20T01:20:01;4.93;;;3.17;;
21181;SDS011;10749;46.296;7.524;2022-12-20T01:22:27;5.57;;;3.00;;
21181;SDS011;10749;46.296;7.524;2022-12-20T01:24:52;8.10;;;3.40;;
21181;SDS011;10749;46.296;7.524;2022-12-20T01:27:17;5.53;;;3.23;;
21181;SDS011;10749;46.296;7.524;2022-12-20T01:29:43;6.70;;;3.37;;
21181;SDS011;10749;46.296;7.524;2022-12-20T01:32:08;5.63;;;3.27;;
21181;SDS011;10749;46.296;7.524;2022-12-20T01:34:33;5.33;;;2.90;;
21181;SDS011;10749;46.296;7.524;2022-12-20T01:36:59;5.23;;;3.00;;
21181;SDS011;10749;46.296;7.524;2022-12-20T01:39:24;3.90;;;2.73;;
21181;SDS011;10749;46.296;7.524;2022-12-20T01:41:49;5.10;;;2.90;;
21181;SDS011;10749;46.296;7.524;2022-12-20T01:46:40;4.17;;;2.60;;
21181;SDS011;10749;46.296;7.524;2022-12-20T01:52:05;5.53;;;2.80;;
21181;SDS011;10749;46.296;7.524;2022-12-20T01:57:28;5.53;;;2.90;;
21181;SDS011;10749;46.296;7.524;2022-12-20T01:59:59;4.40;;;3.63;;
21181;SDS011;10749;46.296;7.524;2022-12-20T02:02:25;4.60;;;2.90;;
21181;SDS011;10749;46.296;7.524;2022-12-20T02:04:51;3.70;;;2.87;;
21181;SDS011;10749;46.296;7.524;2022-12-20T02:07:17;4.90;;;3.03;;
21181;SDS011;10749;46.296;7.524;2022-12-20T02:09:48;6.47;;;2.83;;
21181;SDS011;10749;46.296;7.524;2022-12-20T02:12:14;4.93;;;3.00;;
21181;SDS011;10749;46.296;7.524;2022-12-20T02:17:22;5.57;;;2.97;;
21181;SDS011;10749;46.296;7.524;2022-12-20T02:31:18;5.17;;;3.37;;
21181;SDS011;10749;46.296;7.524;2022-12-20T02:33:49;5.60;;;3.20;;
21181;SDS011;10749;46.296;7.524;2022-12-20T02:36:19;6.63;;;3.17;;
21181;SDS011;10749;46.296;7.524;2022-12-20T02:38:44;5.33;;;3.20;;
21181;SDS011;10749;46.296;7.524;2022-12-20T02:41:11;3.83;;;2.83;;
21181;SDS011;10749;46.296;7.524;2022-12-20T02:43:43;4.07;;;2.73;;
21181;SDS011;10749;46.296;7.524;2022-12-20T02:46:30;2.87;;;1.90;;
21181;SDS011;10749;46.296;7.524;2022-12-20T02:48:57;3.80;;;2.20;;
21181;SDS011;10749;46.296;7.524;2022-12-20T02:51:26;4.70;;;1.90;;
21181;SDS011;10749;46.296;7.524;2022-12-20T02:53:56;4.07;;;1.73;;
21181;SDS011;10749;46.296;7.524;2022-12-20T02:56:34;4.40;;;1.80;;
21181;SDS011;10749;46.296;7.524;2022-12-20T03:01:55;2.73;;;1.70;;
21181;SDS011;10749;46.296;7.524;2022-12-20T03:04:22;3.13;;;2.00;;
21181;SDS011;10749;46.296;7.524;2022-12-20T03:07:06;5.43;;;2.20;;
21181;SDS011;10749;46.296;7.524;2022-12-20T03:09:34;4.20;;;2.20;;
21181;SDS011;10749;46.296;7.524;2022-12-20T03:12:01;3.10;;;2.13;;
21181;SDS011;10749;46.296;7.524;2022-12-20T03:14:28;3.70;;;2.20;;
21181;SDS011;10749;46.296;7.524;2022-12-20T03:16:53;2.20;;;1.70;;
21181;SDS011;10749;46.296;7.524;2022-12-20T03:19:19;2.63;;;1.87;;
21181;SDS011;10749;46.296;7.524;2022-12-20T03:21:45;2.70;;;1.90;;
21181;SDS011;10749;46.296;7.524;2022-12-20T03:24:10;2.83;;;1.93;;
21181;SDS011;10749;46.296;7.524;2022-12-20T03:26:37;4.50;;;2.83;;
21181;SDS011;10749;46.296;7.524;2022-12-20T03:29:03;4.03;;;2.30;;
21181;SDS011;10749;46.296;7.524;2022-12-20T03:31:29;5.23;;;2.70;;
21181;SDS011;10749;46.296;7.524;2022-12-20T03:33:54;4.67;;;2.60;;
21181;SDS011;10749;46.296;7.524;2022-12-20T03:36:20;5.03;;;2.50;;
21181;SDS011;10749;46.296;7.524;2022-12-20T03:38:47;3.50;;;2.00;;
21181;SDS011;10749;46.296;7.524;2022-12-20T03:41:17;4.57;;;1.67;;
21181;SDS011;10749;46.296;7.524;2022-12-20T03:43:43;3.47;;;1.93;;
21181;SDS011;10749;46.296;7.524;2022-12-20T03:46:09;2.23;;;1.50;;
21181;SDS011;10749;46.296;7.524;2022-12-20T03:48:34;2.50;;;1.70;;
21181;SDS011;10749;46.296;7.524;2022-12-20T03:50:59;3.23;;;1.83;;
21181;SDS011;10749;46.296;7.524;2022-12-20T03:53:25;2.43;;;1.50;;
21181;SDS011;10749;46.296;7.524;2022-12-20T03:55:51;2.97;;;1.70;;
21181;SDS011;10749;46.296;7.524;2022-12-20T03:58:16;3.13;;;1.37;;
21181;SDS011;10749;46.296;7.524;2022-12-20T04:00:41;2.20;;;1.40;;
21181;SDS011;10749;46.296;7.524;2022-12-20T04:03:07;4.40;;;1.50;;
21181;SDS011;10749;46.296;7.524;2022-12-20T04:05:32;2.87;;;1.60;;
21181;SDS011;10749;46.296;7.524;2022-12-20T04:07:58;1.97;;;1.30;;
21181;SDS011;10749;46.296;7.524;2022-12-20T04:10:23;3.97;;;1.80;;
21181;SDS011;10749;46.296;7.524;2022-12-20T04:12:49;2.47;;;1.53;;
21181;SDS011;10749;46.296;7.524;2022-12-20T04:15:14;2.33;;;1.40;;
21181;SDS011;10749;46.296;7.524;2022-12-20T04:17:39;2.50;;;1.60;;
21181;SDS011;10749;46.296;7.524;2022-12-20T04:20:05;1.57;;;1.30;;
21181;SDS011;10749;46.296;7.524;2022-12-20T04:22:51;3.57;;;1.53;;
21181;SDS011;10749;46.296;7.524;2022-12-20T04:25:18;2.40;;;1.30;;
21181;SDS011;10749;46.296;7.524;2022-12-20T04:27:44;2.73;;;1.50;;
21181;SDS011;10749;46.296;7.524;2022-12-20T04:30:11;3.73;;;1.93;;
21181;SDS011;10749;46.296;7.524;2022-12-20T04:32:37;2.90;;;1.67;;
21181;SDS011;10749;46.296;7.524;2022-12-20T04:35:02;2.47;;;1.70;;
21181;SDS011;10749;46.296;7.524;2022-12-20T04:37:29;1.50;;;1.20;;
21181;SDS011;10749;46.296;7.524;2022-12-20T04:39:55;3.27;;;1.57;;
21181;SDS011;10749;46.296;7.524;2022-12-20T04:42:22;1.77;;;1.53;;
21181;SDS011;10749;46.296;7.524;2022-12-20T04:44:48;2.60;;;1.80;;
21181;SDS011;10749;46.296;7.524;2022-12-20T04:47:13;3.83;;;1.30;;
21181;SDS011;10749;46.296;7.524;2022-12-20T04:49:38;2.70;;;1.63;;
21181;SDS011;10749;46.296;7.524;2022-12-20T04:52:04;2.43;;;1.30;;
21181;SDS011;10749;46.296;7.524;2022-12-20T04:54:48;1.60;;;1.40;;
21181;SDS011;10749;46.296;7.524;2022-12-20T04:57:13;2.57;;;1.50;;
21181;SDS011;10749;46.296;7.524;2022-12-20T04:59:38;1.93;;;1.30;;
21181;SDS011;10749;46.296;7.524;2022-12-20T05:02:04;3.33;;;1.43;;
21181;SDS011;10749;46.296;7.524;2022-12-20T05:04:29;2.20;;;1.77;;
21181;SDS011;10749;46.296;7.524;2022-12-20T05:06:54;3.23;;;1.70;;
21181;SDS011;10749;46.296;7.524;2022-12-20T05:09:20;2.17;;;1.37;;
21181;SDS011;10749;46.296;7.524;2022-12-20T05:11:45;1.87;;;1.30;;
21181;SDS011;10749;46.296;7.524;2022-12-20T05:14:10;2.73;;;1.77;;
21181;SDS011;10749;46.296;7.524;2022-12-20T05:16:36;2.37;;;1.47;;
21181;SDS011;10749;46.296;7.524;2022-12-20T05:19:01;1.50;;;1.10;;
21181;SDS011;10749;46.296;7.524;2022-12-20T05:21:28;1.93;;;1.40;;
21181;SDS011;10749;46.296;7.524;2022-12-20T05:24:13;2.13;;;1.23;;
21181;SDS011;10749;46.296;7.524;2022-12-20T05:26:57;2.50;;;1.50;;
21181;SDS011;10749;46.296;7.524;2022-12-20T05:29:22;3.13;;;1.70;;
21181;SDS011;10749;46.296;7.524;2022-12-20T05:31:47;3.87;;;1.70;;
21181;SDS011;10749;46.296;7.524;2022-12-20T05:34:13;3.67;;;1.73;;
21181;SDS011;10749;46.296;7.524;2022-12-20T05:36:38;2.40;;;1.80;;
21181;SDS011;10749;46.296;7.524;2022-12-20T05:39:03;3.07;;;1.83;;
21181;SDS011;10749;46.296;7.524;2022-12-20T05:41:30;24.53;;;15.20;;
21181;SDS011;10749;46.296;7.524;2022-12-20T05:43:55;19.00;;;13.47;;
21181;SDS011;10749;46.296;7.524;2022-12-20T05:46:20;17.30;;;11.47;;
21181;SDS011;10749;46.296;7.524;2022-12-20T05:48:46;10.20;;;5.93;;
21181;SDS011;10749;46.296;7.524;2022-12-20T05:51:11;9.63;;;6.57;;
21181;SDS011;10749;46.296;7.524;2022-12-20T05:53:36;8.67;;;5.37;;
21181;SDS011;10749;46.296;7.524;2022-12-20T05:56:01;5.20;;;3.40;;
21181;SDS011;10749;46.296;7.524;2022-12-20T05:58:27;4.53;;;2.30;;
21181;SDS011;10749;46.296;7.524;2022-12-20T06:00:52;3.03;;;1.87;;
21181;SDS011;10749;46.296;7.524;2022-12-20T06:03:18;2.43;;;1.57;;
21181;SDS011;10749;46.296;7.524;2022-12-20T06:05:43;2.17;;;1.33;;
21181;SDS011;10749;46.296;7.524;2022-12-20T06:08:09;2.10;;;1.40;;
21181;SDS011;10749;46.296;7.524;2022-12-20T06:10:35;2.57;;;1.23;;
21181;SDS011;10749;46.296;7.524;2022-12-20T06:13:01;3.50;;;1.90;;
21181;SDS011;10749;46.296;7.524;2022-12-20T06:15:27;4.37;;;2.77;;
21181;SDS011;10749;46.296;7.524;2022-12-20T06:17:53;3.10;;;1.97;;
21181;SDS011;10749;46.296;7.524;2022-12-20T06:20:19;5.33;;;2.47;;
21181;SDS011;10749;46.296;7.524;2022-12-20T06:22:44;3.77;;;2.20;;
21181;SDS011;10749;46.296;7.524;2022-12-20T06:25:10;4.90;;;2.77;;
21181;SDS011;10749;46.296;7.524;2022-12-20T06:27:36;3.83;;;2.33;;
21181;SDS011;10749;46.296;7.524;2022-12-20T06:30:05;3.73;;;2.47;;
21181;SDS011;10749;46.296;7.524;2022-12-20T06:32:32;3.90;;;2.70;;
21181;SDS011;10749;46.296;7.524;2022-12-20T06:34:57;4.33;;;3.03;;
21181;SDS011;10749;46.296;7.524;2022-12-20T06:37:22;6.17;;;3.30;;
21181;SDS011;10749;46.296;7.524;2022-12-20T06:39:48;5.87;;;3.20;;
21181;SDS011;10749;46.296;7.524;2022-12-20T06:42:13;5.00;;;3.10;;
21181;SDS011;10749;46.296;7.524;2022-12-20T06:44:38;6.03;;;3.73;;
21181;SDS011;10749;46.296;7.524;2022-12-20T06:47:04;8.33;;;3.60;;
21181;SDS011;10749;46.296;7.524;2022-12-20T06:49:29;4.77;;;3.17;;
21181;SDS011;10749;46.296;7.524;2022-12-20T06:51:54;5.33;;;3.57;;
21181;SDS011;10749;46.296;7.524;2022-12-20T06:54:20;4.67;;;3.27;;
21181;SDS011;10749;46.296;7.524;2022-12-20T06:56:45;5.93;;;3.40;;
21181;SDS011;10749;46.296;7.524;2022-12-20T06:59:10;8.87;;;3.97;;
21181;SDS011;10749;46.296;7.524;2022-12-20T07:01:35;10.30;;;3.77;;
21181;SDS011;10749;46.296;7.524;2022-12-20T07:04:01;6.77;;;3.50;;
21181;SDS011;10749;46.296;7.524;2022-12-20T07:06:26;4.80;;;3.10;;
21181;SDS011;10749;46.296;7.524;2022-12-20T07:08:53;4.37;;;3.20;;
21181;SDS011;10749;46.296;7.524;2022-12-20T07:11:18;5.03;;;2.37;;
21181;SDS011;10749;46.296;7.524;2022-12-20T07:13:44;5.80;;;2.90;;
21181;SDS011;10749;46.296;7.524;2022-12-20T07:16:09;5.10;;;3.07;;
21181;SDS011;10749;46.296;7.524;2022-12-20T07:18:34;5.67;;;2.30;;
21181;SDS011;10749;46.296;7.524;2022-12-20T07:21:00;4.00;;;1.80;;
21181;SDS011;10749;46.296;7.524;2022-12-20T07:23:27;5.70;;;2.37;;
21181;SDS011;10749;46.296;7.524;2022-12-20T07:25:54;5.83;;;3.70;;
21181;SDS011;10749;46.296;7.524;2022-12-20T07:28:21;5.93;;;3.93;;
21181;SDS011;10749;46.296;7.524;2022-12-20T07:30:47;5.90;;;3.33;;
21181;SDS011;10749;46.296;7.524;2022-12-20T07:33:13;7.07;;;4.13;;
21181;SDS011;10749;46.296;7.524;2022-12-20T07:35:38;5.47;;;3.73;;
21181;SDS011;10749;46.296;7.524;2022-12-20T07:38:04;6.50;;;4.60;;
21181;SDS011;10749;46.296;7.524;2022-12-20T07:40:29;6.67;;;3.93;;
21181;SDS011;10749;46.296;7.524;2022-12-20T07:42:55;6.23;;;4.20;;
21181;SDS011;10749;46.296;7.524;2022-12-20T07:45:20;6.57;;;4.40;;
21181;SDS011;10749;46.296;7.524;2022-12-20T07:47:45;6.63;;;4.50;;
21181;SDS011;10749;46.296;7.524;2022-12-20T07:50:11;6.83;;;4.90;;
21181;SDS011;10749;46.296;7.524;2022-12-20T07:52:36;7.50;;;4.97;;
21181;SDS011;10749;46.296;7.524;2022-12-20T07:55:04;8.87;;;5.13;;
21181;SDS011;10749;46.296;7.524;2022-12-20T07:57:39;7.40;;;5.20;;
21181;SDS011;10749;46.296;7.524;2022-12-20T08:00:09;8.40;;;5.30;;
21181;SDS011;10749;46.296;7.524;2022-12-20T08:02:39;9.23;;;5.43;;
21181;SDS011;10749;46.296;7.524;2022-12-20T08:05:09;6.53;;;4.40;;
21181;SDS011;10749;46.296;7.524;2022-12-20T08:07:35;8.20;;;4.97;;
21181;SDS011;10749;46.296;7.524;2022-12-20T08:10:03;7.90;;;4.53;;
21181;SDS011;10749;46.296;7.524;2022-12-20T08:12:31;7.20;;;3.80;;
21181;SDS011;10749;46.296;7.524;2022-12-20T08:14:57;7.17;;;3.63;;
21181;SDS011;10749;46.296;7.524;2022-12-20T08:17:23;5.70;;;4.00;;
21181;SDS011;10749;46.296;7.524;2022-12-20T08:19:49;6.27;;;3.43;;
21181;SDS011;10749;46.296;7.524;2022-12-20T08:22:17;7.93;;;4.50;;
21181;SDS011;10749;46.296;7.524;2022-12-20T08:24:44;8.13;;;4.73;;
21181;SDS011;10749;46.296;7.524;2022-12-20T08:27:09;6.70;;;5.03;;
21181;SDS011;10749;46.296;7.524;2022-12-20T08:29:35;7.57;;;4.70;;
21181;SDS011;10749;46.296;7.524;2022-12-20T08:32:00;6.87;;;4.90;;
21181;SDS011;10749;46.296;7.524;2022-12-20T08:34:26;8.60;;;4.50;;
21181;SDS011;10749;46.296;7.524;2022-12-20T08:36:51;7.20;;;4.37;;
21181;SDS011;10749;46.296;7.524;2022-12-20T08:39:17;6.63;;;4.13;;
21181;SDS011;10749;46.296;7.524;2022-12-20T08:41:42;7.07;;;4.23;;
21181;SDS011;10749;46.296;7.524;2022-12-20T08:44:07;6.33;;;4.40;;
21181;SDS011;10749;46.296;7.524;2022-12-20T08:46:34;8.13;;;4.50;;
21181;SDS011;10749;46.296;7.524;2022-12-20T08:49:01;7.17;;;4.17;;
21181;SDS011;10749;46.296;7.524;2022-12-20T08:51:26;6.97;;;4.27;;
21181;SDS011;10749;46.296;7.524;2022-12-20T08:53:53;6.83;;;4.60;;
21181;SDS011;10749;46.296;7.524;2022-12-20T08:56:18;6.37;;;4.00;;
21181;SDS011;10749;46.296;7.524;2022-12-20T08:58:44;6.67;;;4.27;;
21181;SDS011;10749;46.296;7.524;2022-12-20T09:01:10;7.73;;;4.40;;
21181;SDS011;10749;46.296;7.524;2022-12-20T09:03:37;8.90;;;4.50;;
21181;SDS011;10749;46.296;7.524;2022-12-20T09:06:05;7.10;;;4.40;;
21181;SDS011;10749;46.296;7.524;2022-12-20T09:08:32;13.07;;;8.57;;
21181;SDS011;10749;46.296;7.524;2022-12-20T09:11:05;17.77;;;10.80;;
21181;SDS011;10749;46.296;7.524;2022-12-20T09:13:34;15.20;;;9.50;;
21181;SDS011;10749;46.296;7.524;2022-12-20T09:16:03;13.20;;;8.53;;
21181;SDS011;10749;46.296;7.524;2022-12-20T09:18:29;8.87;;;5.93;;
21181;SDS011;10749;46.296;7.524;2022-12-20T09:20:58;5.90;;;3.87;;
21181;SDS011;10749;46.296;7.524;2022-12-20T09:23:28;6.63;;;4.50;;
21181;SDS011;10749;46.296;7.524;2022-12-20T09:25:54;6.80;;;3.87;;
21181;SDS011;10749;46.296;7.524;2022-12-20T09:28:24;9.97;;;6.00;;
21181;SDS011;10749;46.296;7.524;2022-12-20T09:30:50;13.70;;;6.67;;
21181;SDS011;10749;46.296;7.524;2022-12-20T09:33:15;24.43;;;12.17;;
21181;SDS011;10749;46.296;7.524;2022-12-20T09:35:44;40.50;;;20.00;;
21181;SDS011;10749;46.296;7.524;2022-12-20T09:38:10;29.90;;;15.70;;
21181;SDS011;10749;46.296;7.524;2022-12-20T09:40:36;26.73;;;13.77;;
21181;SDS011;10749;46.296;7.524;2022-12-20T09:43:02;18.77;;;10.73;;
21181;SDS011;10749;46.296;7.524;2022-12-20T09:45:29;12.27;;;7.80;;
21181;SDS011;10749;46.296;7.524;2022-12-20T09:47:59;12.20;;;6.90;;
21181;SDS011;10749;46.296;7.524;2022-12-20T09:50:36;10.40;;;7.40;;
21181;SDS011;10749;46.296;7.524;2022-12-20T09:56:36;10.77;;;6.20;;
21181;SDS011;10749;46.296;7.524;2022-12-20T09:59:13;7.33;;;4.60;;
21181;SDS011;10749;46.296;7.524;2022-12-20T10:01:42;7.43;;;4.10;;
21181;SDS011;10749;46.296;7.524;2022-12-20T10:04:30;8.67;;;4.70;;
21181;SDS011;10749;46.296;7.524;2022-12-20T10:17:52;8.43;;;5.00;;
21181;SDS011;10749;46.296;7.524;2022-12-20T10:23:16;8.27;;;4.23;;
21181;SDS011;10749;46.296;7.524;2022-12-20T10:25:53;7.10;;;3.60;;
21181;SDS011;10749;46.296;7.524;2022-12-20T10:28:22;6.27;;;3.33;;
21181;SDS011;10749;46.296;7.524;2022-12-20T10:30:51;8.73;;;3.20;;
21181;SDS011;10749;46.296;7.524;2022-12-20T10:33:18;18.30;;;10.50;;
21181;SDS011;10749;46.296;7.524;2022-12-20T10:35:45;17.13;;;9.87;;
21181;SDS011;10749;46.296;7.524;2022-12-20T10:38:12;9.97;;;5.37;;
21181;SDS011;10749;46.296;7.524;2022-12-20T10:43:20;15.87;;;7.30;;
21181;SDS011;10749;46.296;7.524;2022-12-20T10:45:54;15.57;;;7.90;;
21181;SDS011;10749;46.296;7.524;2022-12-20T10:48:36;12.80;;;7.07;;
21181;SDS011;10749;46.296;7.524;2022-12-20T10:51:12;12.90;;;5.90;;
21181;SDS011;10749;46.296;7.524;2022-12-20T10:53:58;12.87;;;6.27;;
21181;SDS011;10749;46.296;7.524;2022-12-20T10:56:32;7.30;;;3.70;;
21181;SDS011;10749;46.296;7.524;2022-12-20T11:01:42;4.00;;;2.60;;
21181;SDS011;10749;46.296;7.524;2022-12-20T11:06:59;5.23;;;2.57;;
21181;SDS011;10749;46.296;7.524;2022-12-20T11:09:50;6.80;;;2.80;;
21181;SDS011;10749;46.296;7.524;2022-12-20T11:12:18;4.57;;;2.57;;
21181;SDS011;10749;46.296;7.524;2022-12-20T11:14:44;5.87;;;2.63;;
21181;SDS011;10749;46.296;7.524;2022-12-20T11:20:20;7.07;;;2.60;;
21181;SDS011;10749;46.296;7.524;2022-12-20T11:26:07;7.23;;;2.30;;
21181;SDS011;10749;46.296;7.524;2022-12-20T11:30:59;3.30;;;2.10;;
21181;SDS011;10749;46.296;7.524;2022-12-20T11:36:45;6.10;;;2.53;;
21181;SDS011;10749;46.296;7.524;2022-12-20T11:39:21;6.03;;;2.77;;
21181;SDS011;10749;46.296;7.524;2022-12-20T11:49:58;4.03;;;2.50;;
21181;SDS011;10749;46.296;7.524;2022-12-20T11:52:45;4.30;;;2.53;;
21181;SDS011;10749;46.296;7.524;2022-12-20T11:58:01;8.40;;;3.10;;
21181;SDS011;10749;46.296;7.524;2022-12-20T12:00:31;4.80;;;3.20;;
21181;SDS011;10749;46.296;7.524;2022-12-20T12:03:02;10.70;;;4.57;;
21181;SDS011;10749;46.296;7.524;2022-12-20T12:08:32;6.70;;;3.70;;
21181;SDS011;10749;46.296;7.524;2022-12-20T12:10:58;9.37;;;3.97;;
21181;SDS011;10749;46.296;7.524;2022-12-20T12:13:31;9.60;;;3.90;;
21181;SDS011;10749;46.296;7.524;2022-12-20T12:18:29;9.50;;;4.17;;
21181;SDS011;10749;46.296;7.524;2022-12-20T12:23:36;5.83;;;4.07;;
21181;SDS011;10749;46.296;7.524;2022-12-20T12:26:24;9.77;;;4.57;;
21181;SDS011;10749;46.296;7.524;2022-12-20T12:28:53;6.50;;;3.77;;
21181;SDS011;10749;46.296;7.524;2022-12-20T12:31:27;7.63;;;3.90;;
21181;SDS011;10749;46.296;7.524;2022-12-20T12:34:05;9.07;;;4.87;;
21181;SDS011;10749;46.296;7.524;2022-12-20T12:36:41;10.00;;;5.97;;
21181;SDS011;10749;46.296;7.524;2022-12-20T12:39:47;13.13;;;6.37;;
21181;SDS011;10749;46.296;7.524;2022-12-20T12:45:42;16.93;;;6.30;;
21181;SDS011;10749;46.296;7.524;2022-12-20T12:50:39;12.97;;;6.30;;
21181;SDS011;10749;46.296;7.524;2022-12-20T12:53:13;10.87;;;5.23;;
21181;SDS011;10749;46.296;7.524;2022-12-20T12:55:43;10.03;;;4.93;;
21181;SDS011;10749;46.296;7.524;2022-12-20T13:00:49;10.37;;;5.13;;
21181;SDS011;10749;46.296;7.524;2022-12-20T13:03:16;10.43;;;4.93;;
21181;SDS011;10749;46.296;7.524;2022-12-20T13:05:59;12.33;;;5.60;;
21181;SDS011;10749;46.296;7.524;2022-12-20T13:16:41;10.93;;;4.40;;
21181;SDS011;10749;46.296;7.524;2022-12-20T13:19:10;7.00;;;4.10;;
21181;SDS011;10749;46.296;7.524;2022-12-20T13:27:17;12.87;;;5.13;;
21181;SDS011;10749;46.296;7.524;2022-12-20T13:45:50;14.13;;;5.30;;
21181;SDS011;10749;46.296;7.524;2022-12-20T13:48:29;10.93;;;4.50;;
21181;SDS011;10749;46.296;7.524;2022-12-20T13:51:03;16.50;;;6.13;;
21181;SDS011;10749;46.296;7.524;2022-12-20T13:53:29;13.50;;;5.33;;
21181;SDS011;10749;46.296;7.524;2022-12-20T13:55:55;13.27;;;5.57;;
21181;SDS011;10749;46.296;7.524;2022-12-20T13:58:23;16.67;;;5.67;;
21181;SDS011;10749;46.296;7.524;2022-12-20T14:00:51;9.03;;;5.47;;
21181;SDS011;10749;46.296;7.524;2022-12-20T14:03:19;15.27;;;5.47;;
21181;SDS011;10749;46.296;7.524;2022-12-20T14:05:47;16.27;;;5.97;;
21181;SDS011;10749;46.296;7.524;2022-12-20T14:08:14;14.70;;;6.83;;
21181;SDS011;10749;46.296;7.524;2022-12-20T14:10:41;20.07;;;6.47;;
21181;SDS011;10749;46.296;7.524;2022-12-20T14:15:46;17.93;;;8.30;;
21181;SDS011;10749;46.296;7.524;2022-12-20T14:18:16;15.53;;;7.30;;
21181;SDS011;10749;46.296;7.524;2022-12-20T14:20:49;16.33;;;8.57;;
21181;SDS011;10749;46.296;7.524;2022-12-20T14:23:21;13.33;;;7.00;;
21181;SDS011;10749;46.296;7.524;2022-12-20T14:28:20;11.63;;;5.67;;
21181;SDS011;10749;46.296;7.524;2022-12-20T14:30:55;10.73;;;5.63;;
21181;SDS011;10749;46.296;7.524;2022-12-20T14:33:27;15.83;;;5.40;;
21181;SDS011;10749;46.296;7.524;2022-12-20T14:35:55;17.20;;;6.23;;
21181;SDS011;10749;46.296;7.524;2022-12-20T14:38:28;14.10;;;6.57;;
21181;SDS011;10749;46.296;7.524;2022-12-20T14:40:54;14.80;;;5.93;;
21181;SDS011;10749;46.296;7.524;2022-12-20T14:43:33;17.40;;;7.20;;
21181;SDS011;10749;46.296;7.524;2022-12-20T14:46:15;15.57;;;6.10;;
21181;SDS011;10749;46.296;7.524;2022-12-20T14:48:43;13.53;;;5.67;;
21181;SDS011;10749;46.296;7.524;2022-12-20T14:51:08;14.77;;;5.10;;
21181;SDS011;10749;46.296;7.524;2022-12-20T14:53:34;12.70;;;5.30;;
21181;SDS011;10749;46.296;7.524;2022-12-20T14:56:01;13.63;;;6.03;;
21181;SDS011;10749;46.296;7.524;2022-12-20T14:58:31;17.43;;;5.67;;
21181;SDS011;10749;46.296;7.524;2022-12-20T15:01:17;9.07;;;5.30;;
21181;SDS011;10749;46.296;7.524;2022-12-20T15:03:51;11.97;;;5.53;;
21181;SDS011;10749;46.296;7.524;2022-12-20T15:06:52;16.07;;;5.83;;
21181;SDS011;10749;46.296;7.524;2022-12-20T15:09:12;12.43;;;5.50;;
21181;SDS011;10749;46.296;7.524;2022-12-20T15:11:38;16.93;;;7.77;;
21181;SDS011;10749;46.296;7.524;2022-12-20T15:17:11;13.60;;;5.90;;
21181;SDS011;10749;46.296;7.524;2022-12-20T15:19:38;15.13;;;6.47;;
21181;SDS011;10749;46.296;7.524;2022-12-20T15:22:04;12.80;;;6.13;;
21181;SDS011;10749;46.296;7.524;2022-12-20T15:24:30;14.53;;;5.90;;
21181;SDS011;10749;46.296;7.524;2022-12-20T15:26:56;12.30;;;6.33;;
21181;SDS011;10749;46.296;7.524;2022-12-20T15:29:26;9.70;;;5.80;;
21181;SDS011;10749;46.296;7.524;2022-12-20T15:31:52;14.57;;;6.10;;
21181;SDS011;10749;46.296;7.524;2022-12-20T15:34:31;12.17;;;5.70;;
21181;SDS011;10749;46.296;7.524;2022-12-20T15:36:59;17.17;;;8.23;;
21181;SDS011;10749;46.296;7.524;2022-12-20T15:39:26;24.23;;;10.33;;
21181;SDS011;10749;46.296;7.524;2022-12-20T15:41:52;28.63;;;13.40;;
21181;SDS011;10749;46.296;7.524;2022-12-20T15:44:19;26.07;;;13.20;;
21181;SDS011;10749;46.296;7.524;2022-12-20T15:46:47;28.40;;;15.57;;
21181;SDS011;10749;46.296;7.524;2022-12-20T15:49:14;17.50;;;8.00;;
21181;SDS011;10749;46.296;7.524;2022-12-20T15:51:41;18.50;;;7.97;;
21181;SDS011;10749;46.296;7.524;2022-12-20T15:54:18;25.53;;;10.83;;
21181;SDS011;10749;46.296;7.524;2022-12-20T15:56:48;20.93;;;8.67;;
21181;SDS011;10749;46.296;7.524;2022-12-20T15:59:13;24.50;;;11.83;;
21181;SDS011;10749;46.296;7.524;2022-12-20T16:01:39;21.77;;;8.90;;
21181;SDS011;10749;46.296;7.524;2022-12-20T16:04:05;18.37;;;8.67;;
21181;SDS011;10749;46.296;7.524;2022-12-20T16:06:31;19.67;;;9.17;;
21181;SDS011;10749;46.296;7.524;2022-12-20T16:08:57;15.07;;;7.10;;
21181;SDS011;10749;46.296;7.524;2022-12-20T16:11:23;14.10;;;7.63;;
21181;SDS011;10749;46.296;7.524;2022-12-20T16:13:51;21.43;;;7.77;;
21181;SDS011;10749;46.296;7.524;2022-12-20T16:16:19;15.93;;;7.30;;
21181;SDS011;10749;46.296;7.524;2022-12-20T16:18:46;16.87;;;8.00;;
21181;SDS011;10749;46.296;7.524;2022-12-20T16:21:22;15.57;;;7.43;;
21181;SDS011;10749;46.296;7.524;2022-12-20T16:23:50;13.80;;;6.93;;
21181;SDS011;10749;46.296;7.524;2022-12-20T16:26:17;16.77;;;7.53;;
21181;SDS011;10749;46.296;7.524;2022-12-20T16:28:44;16.87;;;7.60;;
21181;SDS011;10749;46.296;7.524;2022-12-20T16:31:16;13.67;;;8.13;;
21181;SDS011;10749;46.296;7.524;2022-12-20T16:33:47;18.87;;;10.07;;
21181;SDS011;10749;46.296;7.524;2022-12-20T16:36:13;19.90;;;8.93;;
21181;SDS011;10749;46.296;7.524;2022-12-20T16:38:39;23.77;;;10.93;;
21181;SDS011;10749;46.296;7.524;2022-12-20T16:41:11;24.40;;;10.43;;
21181;SDS011;10749;46.296;7.524;2022-12-20T16:43:45;26.10;;;11.90;;
21181;SDS011;10749;46.296;7.524;2022-12-20T16:46:12;25.97;;;11.33;;
21181;SDS011;10749;46.296;7.524;2022-12-20T16:48:40;24.47;;;11.40;;
21181;SDS011;10749;46.296;7.524;2022-12-20T16:53:51;23.67;;;9.23;;
21181;SDS011;10749;46.296;7.524;2022-12-20T16:56:20;24.77;;;11.37;;
21181;SDS011;10749;46.296;7.524;2022-12-20T16:58:46;15.97;;;7.87;;
21181;SDS011;10749;46.296;7.524;2022-12-20T17:01:15;17.37;;;8.83;;